sensor_id;sensor_type;location;lat;lon;timestamp;P1;durP1;ratioP1;P2;durP2;ratioP2
57389;SDS011;43217;52.694;6.214;2023-08-01T00:00:38;14.63;;;7.43;;
57389;SDS011;43217;52.694;6.214;2023-08-01T00:03:03;12.25;;;6.45;;
57389;SDS011;43217;52.694;6.214;2023-08-01T00:05:29;7.97;;;6.10;;
57389;SDS011;43217;52.694;6.214;2023-08-01T00:07:54;11.20;;;6.40;;
57389;SDS011;43217;52.694;6.214;2023-08-01T00:10:20;10.93;;;6.30;;
57389;SDS011;43217;52.694;6.214;2023-08-01T00:12:46;10.10;;;5.60;;
57389;SDS011;43217;52.694;6.214;2023-08-01T00:15:11;12.15;;;6.72;;
57389;SDS011;43217;52.694;6.214;2023-08-01T00:17:37;9.60;;;5.60;;
57389;SDS011;43217;52.694;6.214;2023-08-01T00:20:03;11.75;;;5.78;;
57389;SDS011;43217;52.694;6.214;2023-08-01T00:22:29;10.63;;;5.80;;
57389;SDS011;43217;52.694;6.214;2023-08-01T00:24:55;8.60;;;5.45;;
57389;SDS011;43217;52.694;6.214;2023-08-01T00:27:21;10.38;;;5.82;;
57389;SDS011;43217;52.694;6.214;2023-08-01T00:29:46;9.10;;;5.40;;
57389;SDS011;43217;52.694;6.214;2023-08-01T00:32:12;10.77;;;5.18;;
57389;SDS011;43217;52.694;6.214;2023-08-01T00:34:38;11.18;;;5.57;;
57389;SDS011;43217;52.694;6.214;2023-08-01T00:37:04;9.75;;;5.13;;
57389;SDS011;43217;52.694;6.214;2023-08-01T00:39:30;10.57;;;6.10;;
57389;SDS011;43217;52.694;6.214;2023-08-01T00:41:56;7.28;;;5.10;;
57389;SDS011;43217;52.694;6.214;2023-08-01T00:44:22;13.18;;;6.28;;
57389;SDS011;43217;52.694;6.214;2023-08-01T00:46:47;9.55;;;5.10;;
57389;SDS011;43217;52.694;6.214;2023-08-01T00:49:14;7.38;;;5.28;;
57389;SDS011;43217;52.694;6.214;2023-08-01T00:51:40;11.13;;;5.70;;
57389;SDS011;43217;52.694;6.214;2023-08-01T00:54:06;12.77;;;5.55;;
57389;SDS011;43217;52.694;6.214;2023-08-01T00:56:32;8.90;;;5.18;;
57389;SDS011;43217;52.694;6.214;2023-08-01T00:58:58;9.48;;;5.75;;
57389;SDS011;43217;52.694;6.214;2023-08-01T01:01:23;9.25;;;5.57;;
57389;SDS011;43217;52.694;6.214;2023-08-01T01:03:49;9.82;;;6.18;;
57389;SDS011;43217;52.694;6.214;2023-08-01T01:06:30;11.38;;;6.15;;
57389;SDS011;43217;52.694;6.214;2023-08-01T01:09:01;9.55;;;5.78;;
57389;SDS011;43217;52.694;6.214;2023-08-01T01:11:30;9.48;;;6.03;;
57389;SDS011;43217;52.694;6.214;2023-08-01T01:13:55;10.73;;;6.40;;
57389;SDS011;43217;52.694;6.214;2023-08-01T01:16:21;13.25;;;6.28;;
57389;SDS011;43217;52.694;6.214;2023-08-01T01:18:46;13.52;;;6.82;;
57389;SDS011;43217;52.694;6.214;2023-08-01T01:21:12;11.80;;;6.35;;
57389;SDS011;43217;52.694;6.214;2023-08-01T01:23:38;13.13;;;6.43;;
57389;SDS011;43217;52.694;6.214;2023-08-01T01:26:05;12.52;;;6.50;;
57389;SDS011;43217;52.694;6.214;2023-08-01T01:28:32;11.32;;;6.20;;
57389;SDS011;43217;52.694;6.214;2023-08-01T01:30:58;12.30;;;5.90;;
57389;SDS011;43217;52.694;6.214;2023-08-01T01:33:25;14.43;;;6.50;;
57389;SDS011;43217;52.694;6.214;2023-08-01T01:35:51;10.95;;;6.00;;
57389;SDS011;43217;52.694;6.214;2023-08-01T01:38:16;9.77;;;6.07;;
57389;SDS011;43217;52.694;6.214;2023-08-01T01:40:42;12.93;;;6.65;;
57389;SDS011;43217;52.694;6.214;2023-08-01T01:43:08;10.77;;;6.47;;
57389;SDS011;43217;52.694;6.214;2023-08-01T01:45:33;9.93;;;5.88;;
57389;SDS011;43217;52.694;6.214;2023-08-01T01:48:00;13.05;;;6.53;;
57389;SDS011;43217;52.694;6.214;2023-08-01T01:50:25;10.25;;;5.80;;
57389;SDS011;43217;52.694;6.214;2023-08-01T01:52:51;13.38;;;6.00;;
57389;SDS011;43217;52.694;6.214;2023-08-01T01:55:17;9.20;;;5.38;;
57389;SDS011;43217;52.694;6.214;2023-08-01T01:57:42;11.05;;;6.22;;
57389;SDS011;43217;52.694;6.214;2023-08-01T02:00:08;11.80;;;5.75;;
57389;SDS011;43217;52.694;6.214;2023-08-01T02:02:35;9.35;;;5.38;;
57389;SDS011;43217;52.694;6.214;2023-08-01T02:05:02;8.65;;;5.07;;
57389;SDS011;43217;52.694;6.214;2023-08-01T02:07:29;10.13;;;5.30;;
57389;SDS011;43217;52.694;6.214;2023-08-01T02:09:55;10.18;;;5.45;;
57389;SDS011;43217;52.694;6.214;2023-08-01T02:12:20;10.02;;;5.47;;
57389;SDS011;43217;52.694;6.214;2023-08-01T02:14:46;11.27;;;5.72;;
57389;SDS011;43217;52.694;6.214;2023-08-01T02:17:12;12.27;;;5.20;;
57389;SDS011;43217;52.694;6.214;2023-08-01T02:19:38;12.95;;;6.47;;
57389;SDS011;43217;52.694;6.214;2023-08-01T02:22:03;13.27;;;5.80;;
57389;SDS011;43217;52.694;6.214;2023-08-01T02:24:29;10.10;;;5.25;;
57389;SDS011;43217;52.694;6.214;2023-08-01T02:26:55;9.63;;;5.05;;
57389;SDS011;43217;52.694;6.214;2023-08-01T02:29:21;7.82;;;5.05;;
57389;SDS011;43217;52.694;6.214;2023-08-01T02:31:46;8.93;;;5.07;;
57389;SDS011;43217;52.694;6.214;2023-08-01T02:34:12;8.85;;;4.63;;
57389;SDS011;43217;52.694;6.214;2023-08-01T02:36:38;9.30;;;5.10;;
57389;SDS011;43217;52.694;6.214;2023-08-01T02:39:05;9.52;;;5.60;;
57389;SDS011;43217;52.694;6.214;2023-08-01T02:41:31;9.95;;;5.45;;
57389;SDS011;43217;52.694;6.214;2023-08-01T02:43:57;8.70;;;5.07;;
57389;SDS011;43217;52.694;6.214;2023-08-01T02:46:23;10.18;;;5.93;;
57389;SDS011;43217;52.694;6.214;2023-08-01T02:48:48;10.55;;;5.65;;
57389;SDS011;43217;52.694;6.214;2023-08-01T02:51:14;11.27;;;5.18;;
57389;SDS011;43217;52.694;6.214;2023-08-01T02:53:40;12.25;;;5.60;;
57389;SDS011;43217;52.694;6.214;2023-08-01T02:56:06;9.48;;;5.60;;
57389;SDS011;43217;52.694;6.214;2023-08-01T02:58:34;8.65;;;5.20;;
57389;SDS011;43217;52.694;6.214;2023-08-01T03:01:00;14.18;;;5.40;;
57389;SDS011;43217;52.694;6.214;2023-08-01T03:03:26;9.13;;;5.38;;
57389;SDS011;43217;52.694;6.214;2023-08-01T03:05:52;7.93;;;5.32;;
57389;SDS011;43217;52.694;6.214;2023-08-01T03:08:18;10.27;;;5.75;;
57389;SDS011;43217;52.694;6.214;2023-08-01T03:10:44;10.32;;;5.50;;
57389;SDS011;43217;52.694;6.214;2023-08-01T03:13:10;9.77;;;5.80;;
57389;SDS011;43217;52.694;6.214;2023-08-01T03:15:35;9.55;;;5.45;;
57389;SDS011;43217;52.694;6.214;2023-08-01T03:18:02;10.63;;;5.95;;
57389;SDS011;43217;52.694;6.214;2023-08-01T03:20:27;15.00;;;6.97;;
57389;SDS011;43217;52.694;6.214;2023-08-01T03:22:53;14.90;;;6.90;;
57389;SDS011;43217;52.694;6.214;2023-08-01T03:25:19;10.35;;;5.50;;
57389;SDS011;43217;52.694;6.214;2023-08-01T03:27:44;8.25;;;4.07;;
57389;SDS011;43217;52.694;6.214;2023-08-01T03:30:10;4.28;;;2.60;;
57389;SDS011;43217;52.694;6.214;2023-08-01T03:32:36;3.00;;;2.33;;
57389;SDS011;43217;52.694;6.214;2023-08-01T03:35:03;4.15;;;2.20;;
57389;SDS011;43217;52.694;6.214;2023-08-01T03:37:29;3.70;;;2.63;;
57389;SDS011;43217;52.694;6.214;2023-08-01T03:39:55;3.00;;;1.80;;
57389;SDS011;43217;52.694;6.214;2023-08-01T03:42:20;2.67;;;1.63;;
57389;SDS011;43217;52.694;6.214;2023-08-01T03:44:46;2.08;;;1.55;;
57389;SDS011;43217;52.694;6.214;2023-08-01T03:47:12;3.63;;;1.60;;
57389;SDS011;43217;52.694;6.214;2023-08-01T03:49:37;2.78;;;1.40;;
57389;SDS011;43217;52.694;6.214;2023-08-01T03:52:04;2.65;;;1.65;;
57389;SDS011;43217;52.694;6.214;2023-08-01T03:54:30;3.30;;;1.80;;
57389;SDS011;43217;52.694;6.214;2023-08-01T03:56:56;3.78;;;1.92;;
57389;SDS011;43217;52.694;6.214;2023-08-01T03:59:22;4.75;;;2.00;;
57389;SDS011;43217;52.694;6.214;2023-08-01T04:01:48;3.80;;;1.70;;
57389;SDS011;43217;52.694;6.214;2023-08-01T04:04:13;3.42;;;1.80;;
57389;SDS011;43217;52.694;6.214;2023-08-01T04:06:39;4.18;;;1.90;;
57389;SDS011;43217;52.694;6.214;2023-08-01T04:09:05;3.00;;;2.10;;
57389;SDS011;43217;52.694;6.214;2023-08-01T04:11:31;3.40;;;2.00;;
57389;SDS011;43217;52.694;6.214;2023-08-01T04:13:58;3.35;;;1.88;;
57389;SDS011;43217;52.694;6.214;2023-08-01T04:16:24;3.50;;;1.93;;
57389;SDS011;43217;52.694;6.214;2023-08-01T04:18:49;3.83;;;2.00;;
57389;SDS011;43217;52.694;6.214;2023-08-01T04:21:15;3.63;;;2.20;;
57389;SDS011;43217;52.694;6.214;2023-08-01T04:23:41;4.28;;;2.70;;
57389;SDS011;43217;52.694;6.214;2023-08-01T04:26:07;4.45;;;2.10;;
57389;SDS011;43217;52.694;6.214;2023-08-01T04:28:33;4.07;;;2.22;;
57389;SDS011;43217;52.694;6.214;2023-08-01T04:30:59;3.47;;;2.03;;
57389;SDS011;43217;52.694;6.214;2023-08-01T04:33:25;3.75;;;2.00;;
57389;SDS011;43217;52.694;6.214;2023-08-01T04:35:50;3.70;;;2.17;;
57389;SDS011;43217;52.694;6.214;2023-08-01T04:38:16;4.05;;;2.20;;
57389;SDS011;43217;52.694;6.214;2023-08-01T04:40:42;3.20;;;2.30;;
57389;SDS011;43217;52.694;6.214;2023-08-01T04:43:08;2.80;;;2.50;;
57389;SDS011;43217;52.694;6.214;2023-08-01T04:45:34;3.53;;;2.10;;
57389;SDS011;43217;52.694;6.214;2023-08-01T04:48:00;4.43;;;2.40;;
57389;SDS011;43217;52.694;6.214;2023-08-01T04:50:26;4.30;;;2.30;;
57389;SDS011;43217;52.694;6.214;2023-08-01T04:52:51;2.50;;;2.20;;
57389;SDS011;43217;52.694;6.214;2023-08-01T04:55:17;3.78;;;2.22;;
57389;SDS011;43217;52.694;6.214;2023-08-01T04:57:43;4.60;;;2.90;;
57389;SDS011;43217;52.694;6.214;2023-08-01T05:00:10;3.05;;;2.20;;
57389;SDS011;43217;52.694;6.214;2023-08-01T05:02:36;4.07;;;2.90;;
57389;SDS011;43217;52.694;6.214;2023-08-01T05:05:02;6.25;;;3.22;;
57389;SDS011;43217;52.694;6.214;2023-08-01T05:07:28;4.73;;;3.23;;
57389;SDS011;43217;52.694;6.214;2023-08-01T05:09:54;4.55;;;2.97;;
57389;SDS011;43217;52.694;6.214;2023-08-01T05:12:20;5.10;;;3.40;;
57389;SDS011;43217;52.694;6.214;2023-08-01T05:14:46;5.43;;;3.13;;
57389;SDS011;43217;52.694;6.214;2023-08-01T05:17:11;6.25;;;3.75;;
57389;SDS011;43217;52.694;6.214;2023-08-01T05:19:37;6.57;;;3.35;;
57389;SDS011;43217;52.694;6.214;2023-08-01T05:22:03;5.75;;;3.47;;
57389;SDS011;43217;52.694;6.214;2023-08-01T05:24:29;6.93;;;3.42;;
57389;SDS011;43217;52.694;6.214;2023-08-01T05:29:25;3.78;;;2.50;;
57389;SDS011;43217;52.694;6.214;2023-08-01T05:31:51;5.70;;;2.50;;
57389;SDS011;43217;52.694;6.214;2023-08-01T05:34:17;4.47;;;2.28;;
57389;SDS011;43217;52.694;6.214;2023-08-01T05:36:42;4.45;;;2.47;;
57389;SDS011;43217;52.694;6.214;2023-08-01T05:39:08;5.20;;;2.88;;
57389;SDS011;43217;52.694;6.214;2023-08-01T05:41:34;4.22;;;3.00;;
57389;SDS011;43217;52.694;6.214;2023-08-01T05:44:01;4.82;;;3.00;;
57389;SDS011;43217;52.694;6.214;2023-08-01T05:46:27;4.75;;;2.97;;
57389;SDS011;43217;52.694;6.214;2023-08-01T05:48:53;4.65;;;3.50;;
57389;SDS011;43217;52.694;6.214;2023-08-01T05:51:18;5.50;;;3.58;;
57389;SDS011;43217;52.694;6.214;2023-08-01T05:53:44;5.60;;;3.45;;
57389;SDS011;43217;52.694;6.214;2023-08-01T05:56:09;6.60;;;3.60;;
57389;SDS011;43217;52.694;6.214;2023-08-01T05:58:35;5.28;;;3.83;;
57389;SDS011;43217;52.694;6.214;2023-08-01T06:01:01;5.03;;;3.08;;
57389;SDS011;43217;52.694;6.214;2023-08-01T06:03:26;7.50;;;3.75;;
57389;SDS011;43217;52.694;6.214;2023-08-01T06:05:52;2.63;;;2.13;;
57389;SDS011;43217;52.694;6.214;2023-08-01T06:08:18;3.53;;;2.17;;
57389;SDS011;43217;52.694;6.214;2023-08-01T06:10:44;3.53;;;2.28;;
57389;SDS011;43217;52.694;6.214;2023-08-01T06:13:10;3.80;;;2.10;;
57389;SDS011;43217;52.694;6.214;2023-08-01T06:15:35;3.22;;;1.90;;
57389;SDS011;43217;52.694;6.214;2023-08-01T06:18:01;2.38;;;2.17;;
57389;SDS011;43217;52.694;6.214;2023-08-01T06:20:27;3.60;;;2.10;;
57389;SDS011;43217;52.694;6.214;2023-08-01T06:22:53;2.83;;;1.98;;
57389;SDS011;43217;52.694;6.214;2023-08-01T06:25:19;3.97;;;2.10;;
57389;SDS011;43217;52.694;6.214;2023-08-01T06:27:45;4.22;;;2.22;;
57389;SDS011;43217;52.694;6.214;2023-08-01T06:30:10;5.57;;;2.47;;
57389;SDS011;43217;52.694;6.214;2023-08-01T06:32:36;4.32;;;2.47;;
57389;SDS011;43217;52.694;6.214;2023-08-01T06:35:02;3.85;;;2.33;;
57389;SDS011;43217;52.694;6.214;2023-08-01T06:37:28;5.30;;;2.65;;
57389;SDS011;43217;52.694;6.214;2023-08-01T06:39:54;5.82;;;2.63;;
57389;SDS011;43217;52.694;6.214;2023-08-01T06:42:20;4.43;;;2.33;;
57389;SDS011;43217;52.694;6.214;2023-08-01T06:44:46;5.55;;;2.80;;
57389;SDS011;43217;52.694;6.214;2023-08-01T06:47:12;5.20;;;2.40;;
57389;SDS011;43217;52.694;6.214;2023-08-01T06:49:38;8.25;;;3.92;;
57389;SDS011;43217;52.694;6.214;2023-08-01T06:52:03;6.05;;;2.58;;
57389;SDS011;43217;52.694;6.214;2023-08-01T06:54:29;8.85;;;3.15;;
57389;SDS011;43217;52.694;6.214;2023-08-01T06:56:57;6.88;;;3.05;;
57389;SDS011;43217;52.694;6.214;2023-08-01T06:59:24;9.23;;;2.88;;
57389;SDS011;43217;52.694;6.214;2023-08-01T07:01:49;8.35;;;3.65;;
57389;SDS011;43217;52.694;6.214;2023-08-01T07:04:15;7.40;;;3.40;;
57389;SDS011;43217;52.694;6.214;2023-08-01T07:06:41;5.93;;;3.17;;
57389;SDS011;43217;52.694;6.214;2023-08-01T07:09:06;6.43;;;3.00;;
57389;SDS011;43217;52.694;6.214;2023-08-01T07:11:32;4.72;;;2.80;;
57389;SDS011;43217;52.694;6.214;2023-08-01T07:13:58;7.38;;;3.40;;
57389;SDS011;43217;52.694;6.214;2023-08-01T07:16:23;7.72;;;3.35;;
57389;SDS011;43217;52.694;6.214;2023-08-01T07:18:49;7.07;;;3.45;;
57389;SDS011;43217;52.694;6.214;2023-08-01T07:21:16;5.18;;;2.60;;
57389;SDS011;43217;52.694;6.214;2023-08-01T07:23:41;8.20;;;2.80;;
57389;SDS011;43217;52.694;6.214;2023-08-01T07:26:08;5.72;;;2.75;;
57389;SDS011;43217;52.694;6.214;2023-08-01T07:28:34;6.55;;;3.35;;
57389;SDS011;43217;52.694;6.214;2023-08-01T07:31:00;7.35;;;3.53;;
57389;SDS011;43217;52.694;6.214;2023-08-01T07:33:28;6.78;;;3.50;;
57389;SDS011;43217;52.694;6.214;2023-08-01T07:35:53;6.65;;;3.08;;
57389;SDS011;43217;52.694;6.214;2023-08-01T07:38:19;7.95;;;3.20;;
57389;SDS011;43217;52.694;6.214;2023-08-01T07:40:45;10.43;;;3.30;;
57389;SDS011;43217;52.694;6.214;2023-08-01T07:43:10;12.43;;;3.60;;
57389;SDS011;43217;52.694;6.214;2023-08-01T07:45:37;6.68;;;3.40;;
57389;SDS011;43217;52.694;6.214;2023-08-01T07:48:03;7.78;;;3.58;;
57389;SDS011;43217;52.694;6.214;2023-08-01T07:50:29;7.15;;;3.15;;
57389;SDS011;43217;52.694;6.214;2023-08-01T07:52:55;6.22;;;3.00;;
57389;SDS011;43217;52.694;6.214;2023-08-01T07:55:22;8.30;;;4.05;;
57389;SDS011;43217;52.694;6.214;2023-08-01T07:57:48;9.50;;;3.83;;
57389;SDS011;43217;52.694;6.214;2023-08-01T08:00:14;10.05;;;3.50;;
57389;SDS011;43217;52.694;6.214;2023-08-01T08:02:41;7.35;;;4.07;;
57389;SDS011;43217;52.694;6.214;2023-08-01T08:05:07;9.45;;;3.90;;
57389;SDS011;43217;52.694;6.214;2023-08-01T08:07:34;12.02;;;3.90;;
57389;SDS011;43217;52.694;6.214;2023-08-01T08:10:00;9.88;;;3.88;;
57389;SDS011;43217;52.694;6.214;2023-08-01T08:12:25;9.38;;;4.43;;
57389;SDS011;43217;52.694;6.214;2023-08-01T08:14:51;9.50;;;4.38;;
57389;SDS011;43217;52.694;6.214;2023-08-01T08:17:17;7.68;;;4.05;;
57389;SDS011;43217;52.694;6.214;2023-08-01T08:19:42;8.82;;;4.10;;
57389;SDS011;43217;52.694;6.214;2023-08-01T08:22:08;8.23;;;4.20;;
57389;SDS011;43217;52.694;6.214;2023-08-01T08:24:33;7.50;;;4.05;;
57389;SDS011;43217;52.694;6.214;2023-08-01T08:26:59;8.52;;;4.10;;
57389;SDS011;43217;52.694;6.214;2023-08-01T08:29:25;8.63;;;3.53;;
57389;SDS011;43217;52.694;6.214;2023-08-01T08:31:51;9.77;;;4.15;;
57389;SDS011;43217;52.694;6.214;2023-08-01T08:34:17;11.25;;;4.30;;
57389;SDS011;43217;52.694;6.214;2023-08-01T08:36:42;9.00;;;3.97;;
57389;SDS011;43217;52.694;6.214;2023-08-01T08:39:08;10.10;;;3.40;;
57389;SDS011;43217;52.694;6.214;2023-08-01T08:41:38;9.48;;;4.03;;
57389;SDS011;43217;52.694;6.214;2023-08-01T08:44:10;8.68;;;3.55;;
57389;SDS011;43217;52.694;6.214;2023-08-01T08:46:41;7.65;;;3.20;;
57389;SDS011;43217;52.694;6.214;2023-08-01T08:49:08;12.18;;;3.85;;
57389;SDS011;43217;52.694;6.214;2023-08-01T08:51:36;9.40;;;3.42;;
57389;SDS011;43217;52.694;6.214;2023-08-01T08:54:03;9.45;;;3.60;;
57389;SDS011;43217;52.694;6.214;2023-08-01T08:56:30;6.90;;;3.33;;
57389;SDS011;43217;52.694;6.214;2023-08-01T08:58:56;9.15;;;3.83;;
57389;SDS011;43217;52.694;6.214;2023-08-01T09:01:22;6.80;;;3.90;;
57389;SDS011;43217;52.694;6.214;2023-08-01T09:03:48;6.85;;;3.55;;
57389;SDS011;43217;52.694;6.214;2023-08-01T09:08:56;8.63;;;4.80;;
57389;SDS011;43217;52.694;6.214;2023-08-01T09:11:48;9.13;;;4.75;;
57389;SDS011;43217;52.694;6.214;2023-08-01T09:14:15;9.63;;;4.55;;
57389;SDS011;43217;52.694;6.214;2023-08-01T09:16:42;8.93;;;4.50;;
57389;SDS011;43217;52.694;6.214;2023-08-01T09:19:09;9.35;;;4.65;;
57389;SDS011;43217;52.694;6.214;2023-08-01T09:21:35;9.65;;;4.45;;
57389;SDS011;43217;52.694;6.214;2023-08-01T09:24:10;9.00;;;4.55;;
57389;SDS011;43217;52.694;6.214;2023-08-01T09:26:36;12.73;;;4.80;;
57389;SDS011;43217;52.694;6.214;2023-08-01T09:29:02;7.68;;;4.13;;
57389;SDS011;43217;52.694;6.214;2023-08-01T09:31:29;7.85;;;4.25;;
57389;SDS011;43217;52.694;6.214;2023-08-01T09:36:22;7.90;;;4.05;;
57389;SDS011;43217;52.694;6.214;2023-08-01T09:38:48;7.82;;;5.22;;
57389;SDS011;43217;52.694;6.214;2023-08-01T09:41:18;9.02;;;4.50;;
57389;SDS011;43217;52.694;6.214;2023-08-01T09:43:44;9.50;;;4.00;;
57389;SDS011;43217;52.694;6.214;2023-08-01T09:46:14;8.05;;;3.25;;
57389;SDS011;43217;52.694;6.214;2023-08-01T09:48:41;5.45;;;2.67;;
57389;SDS011;43217;52.694;6.214;2023-08-01T09:53:34;5.68;;;2.90;;
57389;SDS011;43217;52.694;6.214;2023-08-01T09:56:24;5.50;;;2.85;;
57389;SDS011;43217;52.694;6.214;2023-08-01T09:58:51;5.57;;;2.60;;
57389;SDS011;43217;52.694;6.214;2023-08-01T10:01:22;5.50;;;2.60;;
57389;SDS011;43217;52.694;6.214;2023-08-01T10:03:49;6.65;;;3.13;;
57389;SDS011;43217;52.694;6.214;2023-08-01T10:06:28;5.00;;;3.05;;
57389;SDS011;43217;52.694;6.214;2023-08-01T10:08:55;6.13;;;2.92;;
57389;SDS011;43217;52.694;6.214;2023-08-01T10:11:22;6.00;;;3.17;;
57389;SDS011;43217;52.694;6.214;2023-08-01T10:13:48;3.55;;;2.65;;
57389;SDS011;43217;52.694;6.214;2023-08-01T10:16:14;5.53;;;2.60;;
57389;SDS011;43217;52.694;6.214;2023-08-01T10:18:41;7.28;;;2.72;;
57389;SDS011;43217;52.694;6.214;2023-08-01T10:21:14;5.45;;;2.40;;
57389;SDS011;43217;52.694;6.214;2023-08-01T10:23:41;4.68;;;2.65;;
57389;SDS011;43217;52.694;6.214;2023-08-01T10:26:08;6.95;;;3.35;;
57389;SDS011;43217;52.694;6.214;2023-08-01T10:28:36;5.28;;;2.92;;
57389;SDS011;43217;52.694;6.214;2023-08-01T10:31:21;11.18;;;3.83;;
57389;SDS011;43217;52.694;6.214;2023-08-01T10:33:48;9.70;;;4.35;;
57389;SDS011;43217;52.694;6.214;2023-08-01T10:36:15;7.82;;;3.35;;
57389;SDS011;43217;52.694;6.214;2023-08-01T10:38:47;4.73;;;2.90;;
57389;SDS011;43217;52.694;6.214;2023-08-01T10:41:27;9.70;;;4.00;;
57389;SDS011;43217;52.694;6.214;2023-08-01T10:44:10;7.38;;;3.05;;
57389;SDS011;43217;52.694;6.214;2023-08-01T10:46:59;5.65;;;2.50;;
57389;SDS011;43217;52.694;6.214;2023-08-01T10:52:03;4.88;;;2.00;;
57389;SDS011;43217;52.694;6.214;2023-08-01T10:54:40;4.80;;;2.33;;
57389;SDS011;43217;52.694;6.214;2023-08-01T10:57:06;5.00;;;2.35;;
57389;SDS011;43217;52.694;6.214;2023-08-01T10:59:33;6.35;;;2.67;;
57389;SDS011;43217;52.694;6.214;2023-08-01T11:01:59;5.75;;;2.35;;
57389;SDS011;43217;52.694;6.214;2023-08-01T11:04:26;7.72;;;2.70;;
57389;SDS011;43217;52.694;6.214;2023-08-01T11:06:52;7.93;;;2.58;;
57389;SDS011;43217;52.694;6.214;2023-08-01T11:09:21;4.78;;;2.60;;
57389;SDS011;43217;52.694;6.214;2023-08-01T11:11:55;4.35;;;2.50;;
57389;SDS011;43217;52.694;6.214;2023-08-01T11:14:23;5.82;;;2.28;;
57389;SDS011;43217;52.694;6.214;2023-08-01T11:16:54;6.15;;;3.40;;
57389;SDS011;43217;52.694;6.214;2023-08-01T11:19:27;4.65;;;2.85;;
57389;SDS011;43217;52.694;6.214;2023-08-01T11:21:53;8.07;;;3.33;;
57389;SDS011;43217;52.694;6.214;2023-08-01T11:24:23;7.43;;;3.63;;
57389;SDS011;43217;52.694;6.214;2023-08-01T11:26:53;8.88;;;3.58;;
57389;SDS011;43217;52.694;6.214;2023-08-01T11:29:19;10.95;;;3.35;;
57389;SDS011;43217;52.694;6.214;2023-08-01T11:31:52;5.45;;;2.85;;
57389;SDS011;43217;52.694;6.214;2023-08-01T11:34:22;7.13;;;2.67;;
57389;SDS011;43217;52.694;6.214;2023-08-01T11:36:48;8.80;;;2.65;;
57389;SDS011;43217;52.694;6.214;2023-08-01T11:39:15;4.78;;;2.55;;
57389;SDS011;43217;52.694;6.214;2023-08-01T11:41:42;5.53;;;2.50;;
57389;SDS011;43217;52.694;6.214;2023-08-01T11:44:12;7.65;;;2.72;;
57389;SDS011;43217;52.694;6.214;2023-08-01T11:46:39;8.10;;;2.20;;
57389;SDS011;43217;52.694;6.214;2023-08-01T11:49:06;5.30;;;2.55;;
57389;SDS011;43217;52.694;6.214;2023-08-01T11:51:39;7.72;;;2.50;;
57389;SDS011;43217;52.694;6.214;2023-08-01T11:54:06;6.15;;;2.65;;
57389;SDS011;43217;52.694;6.214;2023-08-01T11:56:32;7.45;;;2.25;;
57389;SDS011;43217;52.694;6.214;2023-08-01T11:58:58;6.55;;;2.65;;
57389;SDS011;43217;52.694;6.214;2023-08-01T12:01:24;5.20;;;2.30;;
57389;SDS011;43217;52.694;6.214;2023-08-01T12:03:51;6.80;;;2.42;;
57389;SDS011;43217;52.694;6.214;2023-08-01T12:06:19;6.15;;;2.20;;
57389;SDS011;43217;52.694;6.214;2023-08-01T12:08:47;5.97;;;2.10;;
57389;SDS011;43217;52.694;6.214;2023-08-01T12:11:19;5.25;;;1.98;;
57389;SDS011;43217;52.694;6.214;2023-08-01T12:13:46;4.47;;;1.95;;
57389;SDS011;43217;52.694;6.214;2023-08-01T12:16:12;4.10;;;1.90;;
57389;SDS011;43217;52.694;6.214;2023-08-01T12:18:40;4.88;;;1.80;;
57389;SDS011;43217;52.694;6.214;2023-08-01T12:21:08;4.43;;;1.73;;
57389;SDS011;43217;52.694;6.214;2023-08-01T12:23:35;8.82;;;1.88;;
57389;SDS011;43217;52.694;6.214;2023-08-01T12:26:01;6.57;;;1.92;;
57389;SDS011;43217;52.694;6.214;2023-08-01T12:28:26;5.90;;;1.80;;
57389;SDS011;43217;52.694;6.214;2023-08-01T12:30:52;5.88;;;2.08;;
57389;SDS011;43217;52.694;6.214;2023-08-01T12:33:18;3.53;;;2.00;;
57389;SDS011;43217;52.694;6.214;2023-08-01T12:35:44;6.55;;;2.33;;
57389;SDS011;43217;52.694;6.214;2023-08-01T12:38:09;3.65;;;1.90;;
57389;SDS011;43217;52.694;6.214;2023-08-01T12:40:35;4.82;;;1.70;;
57389;SDS011;43217;52.694;6.214;2023-08-01T12:43:00;5.95;;;1.73;;
57389;SDS011;43217;52.694;6.214;2023-08-01T12:45:26;4.15;;;1.73;;
57389;SDS011;43217;52.694;6.214;2023-08-01T12:47:52;5.63;;;1.80;;
57389;SDS011;43217;52.694;6.214;2023-08-01T12:50:17;3.63;;;1.45;;
57389;SDS011;43217;52.694;6.214;2023-08-01T12:52:43;6.18;;;2.25;;
57389;SDS011;43217;52.694;6.214;2023-08-01T12:55:09;4.30;;;1.70;;
57389;SDS011;43217;52.694;6.214;2023-08-01T12:57:34;7.13;;;1.42;;
57389;SDS011;43217;52.694;6.214;2023-08-01T13:00:00;6.55;;;1.73;;
57389;SDS011;43217;52.694;6.214;2023-08-01T13:02:26;6.40;;;1.83;;
57389;SDS011;43217;52.694;6.214;2023-08-01T13:04:52;4.20;;;1.88;;
57389;SDS011;43217;52.694;6.214;2023-08-01T13:07:18;8.38;;;2.63;;
57389;SDS011;43217;52.694;6.214;2023-08-01T13:09:43;3.83;;;1.63;;
57389;SDS011;43217;52.694;6.214;2023-08-01T13:12:09;3.78;;;2.00;;
57389;SDS011;43217;52.694;6.214;2023-08-01T13:14:34;5.50;;;1.85;;
57389;SDS011;43217;52.694;6.214;2023-08-01T13:17:01;6.10;;;2.00;;
57389;SDS011;43217;52.694;6.214;2023-08-01T13:19:27;6.30;;;2.97;;
57389;SDS011;43217;52.694;6.214;2023-08-01T13:21:52;4.88;;;1.90;;
57389;SDS011;43217;52.694;6.214;2023-08-01T13:24:18;6.93;;;2.53;;
57389;SDS011;43217;52.694;6.214;2023-08-01T13:26:44;5.55;;;2.13;;
57389;SDS011;43217;52.694;6.214;2023-08-01T13:29:09;11.05;;;2.95;;
57389;SDS011;43217;52.694;6.214;2023-08-01T13:31:35;6.65;;;1.85;;
57389;SDS011;43217;52.694;6.214;2023-08-01T13:34:01;4.75;;;2.40;;
57389;SDS011;43217;52.694;6.214;2023-08-01T13:36:26;5.07;;;1.85;;
57389;SDS011;43217;52.694;6.214;2023-08-01T13:38:52;2.58;;;1.27;;
57389;SDS011;43217;52.694;6.214;2023-08-01T13:41:20;3.38;;;1.83;;
57389;SDS011;43217;52.694;6.214;2023-08-01T13:43:46;3.00;;;1.90;;
57389;SDS011;43217;52.694;6.214;2023-08-01T13:46:13;7.82;;;2.08;;
57389;SDS011;43217;52.694;6.214;2023-08-01T13:48:40;3.33;;;1.95;;
57389;SDS011;43217;52.694;6.214;2023-08-01T13:51:06;4.85;;;2.00;;
57389;SDS011;43217;52.694;6.214;2023-08-01T13:53:32;7.88;;;1.60;;
57389;SDS011;43217;52.694;6.214;2023-08-01T13:55:58;4.00;;;1.70;;
57389;SDS011;43217;52.694;6.214;2023-08-01T13:58:25;2.17;;;1.75;;
57389;SDS011;43217;52.694;6.214;2023-08-01T14:00:51;4.20;;;1.73;;
57389;SDS011;43217;52.694;6.214;2023-08-01T14:03:17;3.80;;;1.75;;
57389;SDS011;43217;52.694;6.214;2023-08-01T14:05:42;2.80;;;1.52;;
57389;SDS011;43217;52.694;6.214;2023-08-01T14:08:08;1.25;;;0.90;;
57389;SDS011;43217;52.694;6.214;2023-08-01T14:10:34;3.53;;;1.10;;
57389;SDS011;43217;52.694;6.214;2023-08-01T14:12:59;2.13;;;1.50;;
57389;SDS011;43217;52.694;6.214;2023-08-01T14:15:25;2.10;;;0.73;;
57389;SDS011;43217;52.694;6.214;2023-08-01T14:17:51;2.35;;;0.80;;
57389;SDS011;43217;52.694;6.214;2023-08-01T14:20:38;1.60;;;0.70;;
57389;SDS011;43217;52.694;6.214;2023-08-01T14:23:03;0.88;;;0.70;;
57389;SDS011;43217;52.694;6.214;2023-08-01T14:25:29;4.20;;;1.13;;
57389;SDS011;43217;52.694;6.214;2023-08-01T14:27:55;3.10;;;1.00;;
57389;SDS011;43217;52.694;6.214;2023-08-01T14:30:21;1.73;;;0.80;;
57389;SDS011;43217;52.694;6.214;2023-08-01T14:32:46;2.38;;;1.08;;
57389;SDS011;43217;52.694;6.214;2023-08-01T14:35:12;1.23;;;0.90;;
57389;SDS011;43217;52.694;6.214;2023-08-01T14:37:38;2.60;;;1.10;;
57389;SDS011;43217;52.694;6.214;2023-08-01T14:40:04;2.75;;;1.20;;
57389;SDS011;43217;52.694;6.214;2023-08-01T14:42:30;2.35;;;1.00;;
57389;SDS011;43217;52.694;6.214;2023-08-01T14:44:55;2.42;;;1.40;;
57389;SDS011;43217;52.694;6.214;2023-08-01T14:47:22;2.47;;;1.27;;
57389;SDS011;43217;52.694;6.214;2023-08-01T14:49:48;2.50;;;1.10;;
57389;SDS011;43217;52.694;6.214;2023-08-01T14:52:14;2.60;;;1.25;;
57389;SDS011;43217;52.694;6.214;2023-08-01T14:54:40;2.20;;;1.23;;